sensor_id;sensor_type;location;lat;lon;timestamp;P1;durP1;ratioP1;P2;durP2;ratioP2
31728;SDS011;18309;43.658;1.312;2022-12-16T00:01:54;18.65;;;8.40;;
31728;SDS011;18309;43.658;1.312;2022-12-16T00:04:20;30.30;;;8.48;;
31728;SDS011;18309;43.658;1.312;2022-12-16T00:06:46;16.35;;;8.50;;
31728;SDS011;18309;43.658;1.312;2022-12-16T00:09:11;16.55;;;8.63;;
31728;SDS011;18309;43.658;1.312;2022-12-16T00:11:37;18.23;;;7.60;;
31728;SDS011;18309;43.658;1.312;2022-12-16T00:14:03;15.80;;;7.80;;
31728;SDS011;18309;43.658;1.312;2022-12-16T00:16:28;17.75;;;7.45;;
31728;SDS011;18309;43.658;1.312;2022-12-16T00:18:54;18.58;;;8.18;;
31728;SDS011;18309;43.658;1.312;2022-12-16T00:21:20;18.38;;;8.10;;
31728;SDS011;18309;43.658;1.312;2022-12-16T00:23:46;11.93;;;6.97;;
31728;SDS011;18309;43.658;1.312;2022-12-16T00:26:12;16.88;;;6.90;;
31728;SDS011;18309;43.658;1.312;2022-12-16T00:28:38;17.42;;;6.25;;
31728;SDS011;18309;43.658;1.312;2022-12-16T00:31:04;11.98;;;5.43;;
31728;SDS011;18309;43.658;1.312;2022-12-16T00:33:30;13.32;;;5.32;;
31728;SDS011;18309;43.658;1.312;2022-12-16T00:35:56;12.23;;;5.68;;
31728;SDS011;18309;43.658;1.312;2022-12-16T00:38:23;13.95;;;4.88;;
31728;SDS011;18309;43.658;1.312;2022-12-16T00:40:50;11.35;;;6.13;;
31728;SDS011;18309;43.658;1.312;2022-12-16T00:43:16;12.02;;;5.97;;
31728;SDS011;18309;43.658;1.312;2022-12-16T00:45:42;9.95;;;5.80;;
31728;SDS011;18309;43.658;1.312;2022-12-16T00:48:09;17.83;;;7.47;;
31728;SDS011;18309;43.658;1.312;2022-12-16T00:50:35;14.63;;;7.68;;
31728;SDS011;18309;43.658;1.312;2022-12-16T00:53:01;15.25;;;8.18;;
31728;SDS011;18309;43.658;1.312;2022-12-16T00:55:27;14.68;;;7.38;;
31728;SDS011;18309;43.658;1.312;2022-12-16T00:57:53;14.93;;;7.30;;
31728;SDS011;18309;43.658;1.312;2022-12-16T01:00:19;14.02;;;7.43;;
31728;SDS011;18309;43.658;1.312;2022-12-16T01:02:47;14.63;;;6.25;;
31728;SDS011;18309;43.658;1.312;2022-12-16T01:05:14;13.10;;;6.28;;
31728;SDS011;18309;43.658;1.312;2022-12-16T01:07:42;15.05;;;5.72;;
31728;SDS011;18309;43.658;1.312;2022-12-16T01:10:08;9.38;;;5.53;;
31728;SDS011;18309;43.658;1.312;2022-12-16T01:12:35;15.07;;;6.03;;
31728;SDS011;18309;43.658;1.312;2022-12-16T01:15:02;12.95;;;6.35;;
31728;SDS011;18309;43.658;1.312;2022-12-16T01:17:30;10.13;;;6.00;;
31728;SDS011;18309;43.658;1.312;2022-12-16T01:19:56;9.35;;;5.55;;
31728;SDS011;18309;43.658;1.312;2022-12-16T01:22:21;9.65;;;5.55;;
31728;SDS011;18309;43.658;1.312;2022-12-16T01:24:47;11.70;;;6.10;;
31728;SDS011;18309;43.658;1.312;2022-12-16T01:27:13;9.57;;;6.07;;
31728;SDS011;18309;43.658;1.312;2022-12-16T01:29:39;15.00;;;6.72;;
31728;SDS011;18309;43.658;1.312;2022-12-16T01:32:05;18.40;;;5.93;;
31728;SDS011;18309;43.658;1.312;2022-12-16T01:34:32;16.00;;;6.28;;
31728;SDS011;18309;43.658;1.312;2022-12-16T01:36:58;10.60;;;5.90;;
31728;SDS011;18309;43.658;1.312;2022-12-16T01:39:24;11.50;;;6.10;;
31728;SDS011;18309;43.658;1.312;2022-12-16T01:41:51;11.32;;;5.72;;
31728;SDS011;18309;43.658;1.312;2022-12-16T01:44:19;12.40;;;6.05;;
31728;SDS011;18309;43.658;1.312;2022-12-16T01:46:50;12.40;;;7.00;;
31728;SDS011;18309;43.658;1.312;2022-12-16T01:54:26;12.98;;;7.00;;
31728;SDS011;18309;43.658;1.312;2022-12-16T01:56:56;11.27;;;6.60;;
31728;SDS011;18309;43.658;1.312;2022-12-16T01:59:27;19.83;;;7.28;;
31728;SDS011;18309;43.658;1.312;2022-12-16T02:01:56;10.25;;;6.30;;
31728;SDS011;18309;43.658;1.312;2022-12-16T02:04:23;13.90;;;7.00;;
31728;SDS011;18309;43.658;1.312;2022-12-16T02:06:49;18.17;;;6.85;;
31728;SDS011;18309;43.658;1.312;2022-12-16T02:09:15;12.80;;;6.70;;
31728;SDS011;18309;43.658;1.312;2022-12-16T02:17:22;17.02;;;8.50;;
31728;SDS011;18309;43.658;1.312;2022-12-16T02:40:00;15.48;;;9.35;;
31728;SDS011;18309;43.658;1.312;2022-12-16T02:47:27;15.73;;;8.73;;
31728;SDS011;18309;43.658;1.312;2022-12-16T02:49:54;16.95;;;9.25;;
31728;SDS011;18309;43.658;1.312;2022-12-16T02:52:21;21.85;;;9.40;;
31728;SDS011;18309;43.658;1.312;2022-12-16T02:54:54;15.25;;;9.45;;
31728;SDS011;18309;43.658;1.312;2022-12-16T03:00:07;15.05;;;9.25;;
31728;SDS011;18309;43.658;1.312;2022-12-16T03:02:44;22.60;;;10.60;;
31728;SDS011;18309;43.658;1.312;2022-12-16T03:05:43;17.85;;;9.32;;
31728;SDS011;18309;43.658;1.312;2022-12-16T03:08:23;17.15;;;10.35;;
31728;SDS011;18309;43.658;1.312;2022-12-16T03:10:55;19.23;;;9.80;;
31728;SDS011;18309;43.658;1.312;2022-12-16T03:13:23;20.95;;;9.73;;
31728;SDS011;18309;43.658;1.312;2022-12-16T03:15:52;15.63;;;9.40;;
31728;SDS011;18309;43.658;1.312;2022-12-16T03:18:20;16.27;;;9.70;;
31728;SDS011;18309;43.658;1.312;2022-12-16T03:20:54;16.45;;;10.05;;
31728;SDS011;18309;43.658;1.312;2022-12-16T03:23:27;17.02;;;10.73;;
31728;SDS011;18309;43.658;1.312;2022-12-16T03:25:58;14.40;;;9.63;;
31728;SDS011;18309;43.658;1.312;2022-12-16T03:28:35;17.70;;;9.27;;
31728;SDS011;18309;43.658;1.312;2022-12-16T03:31:09;21.05;;;10.15;;
31728;SDS011;18309;43.658;1.312;2022-12-16T03:33:51;15.32;;;9.10;;
31728;SDS011;18309;43.658;1.312;2022-12-16T03:36:36;17.98;;;9.50;;
31728;SDS011;18309;43.658;1.312;2022-12-16T03:39:05;21.27;;;9.10;;
31728;SDS011;18309;43.658;1.312;2022-12-16T03:41:32;15.73;;;9.15;;
31728;SDS011;18309;43.658;1.312;2022-12-16T03:43:59;21.95;;;9.30;;
31728;SDS011;18309;43.658;1.312;2022-12-16T03:46:25;15.00;;;8.90;;
31728;SDS011;18309;43.658;1.312;2022-12-16T03:48:51;17.75;;;9.43;;
31728;SDS011;18309;43.658;1.312;2022-12-16T03:51:18;19.27;;;9.90;;
31728;SDS011;18309;43.658;1.312;2022-12-16T03:53:44;16.70;;;9.60;;
31728;SDS011;18309;43.658;1.312;2022-12-16T03:56:11;17.33;;;9.35;;
31728;SDS011;18309;43.658;1.312;2022-12-16T03:58:40;16.33;;;9.02;;
31728;SDS011;18309;43.658;1.312;2022-12-16T04:01:09;20.63;;;10.40;;
31728;SDS011;18309;43.658;1.312;2022-12-16T04:03:35;20.33;;;9.07;;
31728;SDS011;18309;43.658;1.312;2022-12-16T04:06:02;16.27;;;8.05;;
31728;SDS011;18309;43.658;1.312;2022-12-16T04:08:28;15.77;;;8.77;;
31728;SDS011;18309;43.658;1.312;2022-12-16T04:10:54;17.05;;;8.43;;
31728;SDS011;18309;43.658;1.312;2022-12-16T04:13:38;14.38;;;7.57;;
31728;SDS011;18309;43.658;1.312;2022-12-16T04:16:22;14.82;;;7.18;;
31728;SDS011;18309;43.658;1.312;2022-12-16T04:19:20;16.95;;;8.52;;
31728;SDS011;18309;43.658;1.312;2022-12-16T04:22:10;15.50;;;8.88;;
31728;SDS011;18309;43.658;1.312;2022-12-16T04:25:23;15.48;;;8.32;;
31728;SDS011;18309;43.658;1.312;2022-12-16T04:27:55;15.50;;;8.32;;
31728;SDS011;18309;43.658;1.312;2022-12-16T04:30:23;14.80;;;7.63;;
31728;SDS011;18309;43.658;1.312;2022-12-16T04:32:55;16.83;;;7.55;;
31728;SDS011;18309;43.658;1.312;2022-12-16T04:35:45;15.88;;;7.38;;
31728;SDS011;18309;43.658;1.312;2022-12-16T04:38:29;9.30;;;6.10;;
31728;SDS011;18309;43.658;1.312;2022-12-16T04:41:14;11.48;;;6.57;;
31728;SDS011;18309;43.658;1.312;2022-12-16T04:43:58;13.45;;;6.43;;
31728;SDS011;18309;43.658;1.312;2022-12-16T04:46:42;13.30;;;7.38;;
31728;SDS011;18309;43.658;1.312;2022-12-16T04:49:46;12.80;;;6.43;;
31728;SDS011;18309;43.658;1.312;2022-12-16T04:52:31;15.18;;;6.45;;
31728;SDS011;18309;43.658;1.312;2022-12-16T04:55:15;10.05;;;6.47;;
31728;SDS011;18309;43.658;1.312;2022-12-16T04:57:59;16.30;;;7.30;;
31728;SDS011;18309;43.658;1.312;2022-12-16T05:00:46;11.20;;;6.22;;
31728;SDS011;18309;43.658;1.312;2022-12-16T05:03:32;10.20;;;6.05;;
31728;SDS011;18309;43.658;1.312;2022-12-16T05:06:16;12.95;;;6.28;;
31728;SDS011;18309;43.658;1.312;2022-12-16T05:09:01;11.10;;;6.03;;
31728;SDS011;18309;43.658;1.312;2022-12-16T05:11:46;14.65;;;6.68;;
31728;SDS011;18309;43.658;1.312;2022-12-16T05:14:30;12.57;;;6.20;;
31728;SDS011;18309;43.658;1.312;2022-12-16T05:17:15;10.13;;;5.78;;
31728;SDS011;18309;43.658;1.312;2022-12-16T05:19:59;13.82;;;6.57;;
31728;SDS011;18309;43.658;1.312;2022-12-16T05:22:44;26.50;;;7.32;;
31728;SDS011;18309;43.658;1.312;2022-12-16T05:25:28;9.48;;;6.45;;
31728;SDS011;18309;43.658;1.312;2022-12-16T05:28:13;12.55;;;6.60;;
31728;SDS011;18309;43.658;1.312;2022-12-16T05:30:57;17.60;;;6.35;;
31728;SDS011;18309;43.658;1.312;2022-12-16T05:33:41;16.67;;;6.80;;
31728;SDS011;18309;43.658;1.312;2022-12-16T05:36:26;13.13;;;6.72;;
31728;SDS011;18309;43.658;1.312;2022-12-16T05:39:18;13.48;;;6.10;;
31728;SDS011;18309;43.658;1.312;2022-12-16T05:42:02;13.82;;;7.35;;
31728;SDS011;18309;43.658;1.312;2022-12-16T05:44:46;11.80;;;7.30;;
31728;SDS011;18309;43.658;1.312;2022-12-16T05:47:30;17.60;;;7.50;;
31728;SDS011;18309;43.658;1.312;2022-12-16T05:50:15;13.85;;;8.00;;
31728;SDS011;18309;43.658;1.312;2022-12-16T05:53:06;11.85;;;7.60;;
31728;SDS011;18309;43.658;1.312;2022-12-16T05:55:51;11.98;;;7.43;;
31728;SDS011;18309;43.658;1.312;2022-12-16T05:58:35;13.82;;;7.90;;
31728;SDS011;18309;43.658;1.312;2022-12-16T06:01:19;14.75;;;8.13;;
31728;SDS011;18309;43.658;1.312;2022-12-16T06:04:04;16.48;;;8.10;;
31728;SDS011;18309;43.658;1.312;2022-12-16T06:06:48;16.20;;;7.20;;
31728;SDS011;18309;43.658;1.312;2022-12-16T06:09:32;15.02;;;8.75;;
31728;SDS011;18309;43.658;1.312;2022-12-16T06:12:17;14.88;;;9.13;;
31728;SDS011;18309;43.658;1.312;2022-12-16T06:15:01;17.65;;;8.40;;
31728;SDS011;18309;43.658;1.312;2022-12-16T06:17:46;12.10;;;7.88;;
31728;SDS011;18309;43.658;1.312;2022-12-16T06:20:32;15.88;;;8.82;;
31728;SDS011;18309;43.658;1.312;2022-12-16T06:23:16;16.33;;;9.15;;
31728;SDS011;18309;43.658;1.312;2022-12-16T06:26:01;16.15;;;8.23;;
31728;SDS011;18309;43.658;1.312;2022-12-16T06:28:45;17.50;;;8.00;;
31728;SDS011;18309;43.658;1.312;2022-12-16T06:31:30;15.00;;;7.75;;
31728;SDS011;18309;43.658;1.312;2022-12-16T06:34:14;15.07;;;7.25;;
31728;SDS011;18309;43.658;1.312;2022-12-16T06:36:58;12.88;;;7.65;;
31728;SDS011;18309;43.658;1.312;2022-12-16T06:39:42;12.02;;;6.97;;
31728;SDS011;18309;43.658;1.312;2022-12-16T06:42:27;14.55;;;7.03;;
31728;SDS011;18309;43.658;1.312;2022-12-16T06:45:11;17.90;;;6.80;;
31728;SDS011;18309;43.658;1.312;2022-12-16T06:47:55;14.20;;;7.32;;
31728;SDS011;18309;43.658;1.312;2022-12-16T06:50:39;18.80;;;8.77;;
31728;SDS011;18309;43.658;1.312;2022-12-16T06:53:23;16.13;;;9.00;;
31728;SDS011;18309;43.658;1.312;2022-12-16T06:56:08;14.25;;;8.98;;
31728;SDS011;18309;43.658;1.312;2022-12-16T06:58:52;25.90;;;13.10;;
31728;SDS011;18309;43.658;1.312;2022-12-16T07:01:36;15.93;;;9.60;;
31728;SDS011;18309;43.658;1.312;2022-12-16T07:04:20;18.23;;;9.90;;
31728;SDS011;18309;43.658;1.312;2022-12-16T07:07:05;17.38;;;9.43;;
31728;SDS011;18309;43.658;1.312;2022-12-16T07:09:49;17.13;;;9.90;;
31728;SDS011;18309;43.658;1.312;2022-12-16T07:12:33;17.67;;;10.23;;
31728;SDS011;18309;43.658;1.312;2022-12-16T07:15:31;20.52;;;12.25;;
31728;SDS011;18309;43.658;1.312;2022-12-16T07:18:15;20.83;;;11.48;;
31728;SDS011;18309;43.658;1.312;2022-12-16T07:20:59;23.17;;;11.55;;
31728;SDS011;18309;43.658;1.312;2022-12-16T07:23:43;17.83;;;10.48;;
31728;SDS011;18309;43.658;1.312;2022-12-16T07:26:28;23.20;;;11.57;;
31728;SDS011;18309;43.658;1.312;2022-12-16T07:29:12;31.20;;;15.43;;
31728;SDS011;18309;43.658;1.312;2022-12-16T07:31:56;33.05;;;14.63;;
31728;SDS011;18309;43.658;1.312;2022-12-16T07:34:40;23.88;;;13.68;;
31728;SDS011;18309;43.658;1.312;2022-12-16T07:37:25;20.70;;;12.50;;
31728;SDS011;18309;43.658;1.312;2022-12-16T07:40:09;26.40;;;14.05;;
31728;SDS011;18309;43.658;1.312;2022-12-16T07:42:53;23.92;;;13.50;;
31728;SDS011;18309;43.658;1.312;2022-12-16T07:45:37;24.52;;;12.80;;
31728;SDS011;18309;43.658;1.312;2022-12-16T07:48:22;20.27;;;12.13;;
31728;SDS011;18309;43.658;1.312;2022-12-16T07:51:06;21.08;;;11.85;;
31728;SDS011;18309;43.658;1.312;2022-12-16T07:53:50;20.42;;;11.25;;
31728;SDS011;18309;43.658;1.312;2022-12-16T07:56:34;21.42;;;11.07;;
31728;SDS011;18309;43.658;1.312;2022-12-16T07:59:19;18.77;;;10.63;;
31728;SDS011;18309;43.658;1.312;2022-12-16T08:02:03;20.90;;;10.57;;
31728;SDS011;18309;43.658;1.312;2022-12-16T08:04:52;21.83;;;11.88;;
31728;SDS011;18309;43.658;1.312;2022-12-16T08:07:39;20.98;;;12.23;;
31728;SDS011;18309;43.658;1.312;2022-12-16T08:10:26;24.38;;;13.05;;
31728;SDS011;18309;43.658;1.312;2022-12-16T08:13:10;29.27;;;13.05;;
31728;SDS011;18309;43.658;1.312;2022-12-16T08:15:55;27.48;;;13.18;;
31728;SDS011;18309;43.658;1.312;2022-12-16T08:18:39;21.80;;;12.85;;
31728;SDS011;18309;43.658;1.312;2022-12-16T08:21:23;29.15;;;14.40;;
31728;SDS011;18309;43.658;1.312;2022-12-16T08:24:08;25.30;;;14.25;;
31728;SDS011;18309;43.658;1.312;2022-12-16T08:26:52;19.45;;;12.07;;
31728;SDS011;18309;43.658;1.312;2022-12-16T08:29:36;23.23;;;12.32;;
31728;SDS011;18309;43.658;1.312;2022-12-16T08:32:20;26.23;;;12.15;;
31728;SDS011;18309;43.658;1.312;2022-12-16T08:35:05;24.25;;;12.23;;
31728;SDS011;18309;43.658;1.312;2022-12-16T08:37:53;17.25;;;10.63;;
31728;SDS011;18309;43.658;1.312;2022-12-16T08:40:38;20.80;;;10.45;;
31728;SDS011;18309;43.658;1.312;2022-12-16T08:43:26;18.70;;;9.98;;
31728;SDS011;18309;43.658;1.312;2022-12-16T08:46:16;20.70;;;10.98;;
31728;SDS011;18309;43.658;1.312;2022-12-16T08:49:00;29.85;;;15.55;;
31728;SDS011;18309;43.658;1.312;2022-12-16T08:51:44;38.60;;;19.30;;
31728;SDS011;18309;43.658;1.312;2022-12-16T08:54:29;35.53;;;18.92;;
31728;SDS011;18309;43.658;1.312;2022-12-16T08:57:13;26.63;;;14.50;;
31728;SDS011;18309;43.658;1.312;2022-12-16T09:00:00;23.50;;;12.93;;
31728;SDS011;18309;43.658;1.312;2022-12-16T09:02:51;13.02;;;8.18;;
31728;SDS011;18309;43.658;1.312;2022-12-16T09:08:23;9.23;;;5.70;;
31728;SDS011;18309;43.658;1.312;2022-12-16T09:11:07;12.45;;;6.20;;
31728;SDS011;18309;43.658;1.312;2022-12-16T09:13:51;15.27;;;6.13;;
31728;SDS011;18309;43.658;1.312;2022-12-16T09:16:36;11.27;;;5.55;;
31728;SDS011;18309;43.658;1.312;2022-12-16T09:19:20;16.70;;;5.85;;
31728;SDS011;18309;43.658;1.312;2022-12-16T09:22:04;9.52;;;5.15;;
31728;SDS011;18309;43.658;1.312;2022-12-16T09:24:48;14.55;;;7.55;;
31728;SDS011;18309;43.658;1.312;2022-12-16T09:27:36;14.85;;;7.18;;
31728;SDS011;18309;43.658;1.312;2022-12-16T09:30:20;12.98;;;6.38;;
31728;SDS011;18309;43.658;1.312;2022-12-16T09:33:04;11.15;;;5.13;;
31728;SDS011;18309;43.658;1.312;2022-12-16T09:35:49;8.63;;;4.80;;
31728;SDS011;18309;43.658;1.312;2022-12-16T09:38:33;8.27;;;5.10;;
31728;SDS011;18309;43.658;1.312;2022-12-16T09:41:40;13.98;;;7.80;;
31728;SDS011;18309;43.658;1.312;2022-12-16T09:50:03;16.05;;;7.00;;
31728;SDS011;18309;43.658;1.312;2022-12-16T09:52:50;25.35;;;7.38;;
31728;SDS011;18309;43.658;1.312;2022-12-16T09:55:41;19.17;;;6.05;;
31728;SDS011;18309;43.658;1.312;2022-12-16T09:58:31;10.70;;;6.07;;
31728;SDS011;18309;43.658;1.312;2022-12-16T10:01:22;10.32;;;5.47;;
31728;SDS011;18309;43.658;1.312;2022-12-16T10:04:08;10.55;;;5.88;;
31728;SDS011;18309;43.658;1.312;2022-12-16T10:06:54;9.10;;;5.45;;
31728;SDS011;18309;43.658;1.312;2022-12-16T10:15:48;15.75;;;8.02;;
31728;SDS011;18309;43.658;1.312;2022-12-16T10:21:45;16.25;;;8.48;;
31728;SDS011;18309;43.658;1.312;2022-12-16T10:28:23;13.30;;;8.07;;
31728;SDS011;18309;43.658;1.312;2022-12-16T10:31:11;17.30;;;8.32;;
31728;SDS011;18309;43.658;1.312;2022-12-16T10:33:58;18.17;;;8.60;;
31728;SDS011;18309;43.658;1.312;2022-12-16T10:36:42;13.98;;;8.48;;
31728;SDS011;18309;43.658;1.312;2022-12-16T10:39:36;14.38;;;7.78;;
31728;SDS011;18309;43.658;1.312;2022-12-16T10:42:29;16.45;;;8.43;;
31728;SDS011;18309;43.658;1.312;2022-12-16T10:45:23;12.88;;;8.20;;
31728;SDS011;18309;43.658;1.312;2022-12-16T10:48:20;20.90;;;9.45;;
31728;SDS011;18309;43.658;1.312;2022-12-16T10:51:13;17.33;;;8.65;;
31728;SDS011;18309;43.658;1.312;2022-12-16T10:54:07;19.92;;;8.68;;
31728;SDS011;18309;43.658;1.312;2022-12-16T10:57:08;15.57;;;7.40;;
31728;SDS011;18309;43.658;1.312;2022-12-16T11:03:16;10.55;;;7.15;;
31728;SDS011;18309;43.658;1.312;2022-12-16T11:06:02;10.73;;;7.13;;
31728;SDS011;18309;43.658;1.312;2022-12-16T11:08:47;12.57;;;6.72;;
31728;SDS011;18309;43.658;1.312;2022-12-16T11:11:31;9.60;;;5.75;;
31728;SDS011;18309;43.658;1.312;2022-12-16T11:14:26;11.40;;;6.22;;
31728;SDS011;18309;43.658;1.312;2022-12-16T11:17:16;11.40;;;5.45;;
31728;SDS011;18309;43.658;1.312;2022-12-16T11:23:17;8.77;;;5.50;;
31728;SDS011;18309;43.658;1.312;2022-12-16T11:31:49;9.18;;;6.50;;
31728;SDS011;18309;43.658;1.312;2022-12-16T11:34:38;11.75;;;7.07;;
31728;SDS011;18309;43.658;1.312;2022-12-16T11:37:25;9.98;;;5.57;;
31728;SDS011;18309;43.658;1.312;2022-12-16T11:40:12;7.85;;;4.57;;
31728;SDS011;18309;43.658;1.312;2022-12-16T11:43:02;7.65;;;5.15;;
31728;SDS011;18309;43.658;1.312;2022-12-16T11:45:48;6.72;;;4.50;;
31728;SDS011;18309;43.658;1.312;2022-12-16T11:48:51;8.50;;;5.68;;
31728;SDS011;18309;43.658;1.312;2022-12-16T11:51:41;8.25;;;5.90;;
31728;SDS011;18309;43.658;1.312;2022-12-16T11:54:34;11.23;;;6.90;;
31728;SDS011;18309;43.658;1.312;2022-12-16T11:57:21;9.77;;;6.38;;
31728;SDS011;18309;43.658;1.312;2022-12-16T12:00:21;13.50;;;7.10;;
31728;SDS011;18309;43.658;1.312;2022-12-16T12:03:08;11.77;;;7.07;;
31728;SDS011;18309;43.658;1.312;2022-12-16T12:09:15;9.23;;;5.90;;
31728;SDS011;18309;43.658;1.312;2022-12-16T12:12:15;5.45;;;3.88;;
31728;SDS011;18309;43.658;1.312;2022-12-16T12:26:32;5.57;;;3.85;;
31728;SDS011;18309;43.658;1.312;2022-12-16T12:32:35;6.93;;;4.65;;
31728;SDS011;18309;43.658;1.312;2022-12-16T12:38:11;9.32;;;4.80;;
31728;SDS011;18309;43.658;1.312;2022-12-16T12:40:59;11.73;;;5.80;;
31728;SDS011;18309;43.658;1.312;2022-12-16T12:46:59;10.85;;;6.15;;
31728;SDS011;18309;43.658;1.312;2022-12-16T12:55:40;12.80;;;6.78;;
31728;SDS011;18309;43.658;1.312;2022-12-16T12:58:43;10.13;;;6.72;;
31728;SDS011;18309;43.658;1.312;2022-12-16T13:01:29;11.90;;;6.40;;
31728;SDS011;18309;43.658;1.312;2022-12-16T13:04:16;10.60;;;6.15;;
31728;SDS011;18309;43.658;1.312;2022-12-16T13:07:03;10.57;;;6.30;;
31728;SDS011;18309;43.658;1.312;2022-12-16T13:15:57;11.57;;;6.90;;
31728;SDS011;18309;43.658;1.312;2022-12-16T13:18:46;13.48;;;7.00;;
31728;SDS011;18309;43.658;1.312;2022-12-16T13:27:23;12.40;;;7.30;;
31728;SDS011;18309;43.658;1.312;2022-12-16T13:32:54;8.50;;;5.93;;
31728;SDS011;18309;43.658;1.312;2022-12-16T13:35:54;8.30;;;5.43;;
31728;SDS011;18309;43.658;1.312;2022-12-16T13:38:47;6.40;;;4.82;;
31728;SDS011;18309;43.658;1.312;2022-12-16T13:47:57;11.93;;;6.07;;
31728;SDS011;18309;43.658;1.312;2022-12-16T13:53:26;11.25;;;5.32;;
31728;SDS011;18309;43.658;1.312;2022-12-16T13:56:13;11.20;;;6.05;;
31728;SDS011;18309;43.658;1.312;2022-12-16T13:59:03;6.82;;;3.53;;
31728;SDS011;18309;43.658;1.312;2022-12-16T14:04:47;9.13;;;3.60;;
31728;SDS011;18309;43.658;1.312;2022-12-16T14:07:38;5.78;;;3.78;;
31728;SDS011;18309;43.658;1.312;2022-12-16T14:25:12;9.50;;;5.93;;
31728;SDS011;18309;43.658;1.312;2022-12-16T14:28:26;11.38;;;6.53;;
31728;SDS011;18309;43.658;1.312;2022-12-16T14:31:28;12.95;;;7.10;;
31728;SDS011;18309;43.658;1.312;2022-12-16T14:34:27;12.13;;;7.45;;
31728;SDS011;18309;43.658;1.312;2022-12-16T14:40:17;7.00;;;4.45;;
31728;SDS011;18309;43.658;1.312;2022-12-16T14:43:02;11.35;;;5.72;;
31728;SDS011;18309;43.658;1.312;2022-12-16T14:45:53;9.25;;;4.85;;
31728;SDS011;18309;43.658;1.312;2022-12-16T14:48:37;15.43;;;9.25;;
31728;SDS011;18309;43.658;1.312;2022-12-16T14:51:32;22.50;;;12.88;;
31728;SDS011;18309;43.658;1.312;2022-12-16T15:00:22;24.23;;;13.77;;
31728;SDS011;18309;43.658;1.312;2022-12-16T15:03:26;29.40;;;15.20;;
31728;SDS011;18309;43.658;1.312;2022-12-16T15:06:42;28.85;;;14.45;;
31728;SDS011;18309;43.658;1.312;2022-12-16T15:09:28;27.80;;;13.82;;
31728;SDS011;18309;43.658;1.312;2022-12-16T15:12:25;21.25;;;12.45;;
31728;SDS011;18309;43.658;1.312;2022-12-16T15:15:14;22.45;;;12.13;;
31728;SDS011;18309;43.658;1.312;2022-12-16T15:18:02;21.58;;;12.38;;
31728;SDS011;18309;43.658;1.312;2022-12-16T15:20:51;34.78;;;13.38;;
31728;SDS011;18309;43.658;1.312;2022-12-16T15:23:40;25.75;;;13.27;;
31728;SDS011;18309;43.658;1.312;2022-12-16T15:26:28;22.00;;;11.73;;
31728;SDS011;18309;43.658;1.312;2022-12-16T15:29:49;23.30;;;11.52;;
31728;SDS011;18309;43.658;1.312;2022-12-16T15:32:30;17.02;;;10.20;;
31728;SDS011;18309;43.658;1.312;2022-12-16T15:40:58;17.00;;;9.07;;
31728;SDS011;18309;43.658;1.312;2022-12-16T15:43:43;15.52;;;9.55;;
31728;SDS011;18309;43.658;1.312;2022-12-16T15:46:29;18.05;;;9.50;;
31728;SDS011;18309;43.658;1.312;2022-12-16T15:49:17;12.18;;;7.72;;
31728;SDS011;18309;43.658;1.312;2022-12-16T15:52:50;13.57;;;7.72;;
31728;SDS011;18309;43.658;1.312;2022-12-16T16:01:16;17.45;;;9.10;;
31728;SDS011;18309;43.658;1.312;2022-12-16T16:04:18;16.73;;;9.05;;
31728;SDS011;18309;43.658;1.312;2022-12-16T16:07:18;18.30;;;9.18;;
31728;SDS011;18309;43.658;1.312;2022-12-16T16:10:17;13.52;;;8.07;;
31728;SDS011;18309;43.658;1.312;2022-12-16T16:13:05;17.27;;;8.45;;
31728;SDS011;18309;43.658;1.312;2022-12-16T16:15:50;11.93;;;7.45;;
31728;SDS011;18309;43.658;1.312;2022-12-16T16:18:34;14.88;;;8.07;;
31728;SDS011;18309;43.658;1.312;2022-12-16T16:21:19;15.65;;;7.57;;
31728;SDS011;18309;43.658;1.312;2022-12-16T16:24:03;15.10;;;8.35;;
31728;SDS011;18309;43.658;1.312;2022-12-16T16:26:48;14.60;;;7.47;;
31728;SDS011;18309;43.658;1.312;2022-12-16T16:29:32;16.38;;;7.40;;
31728;SDS011;18309;43.658;1.312;2022-12-16T16:32:16;13.25;;;7.13;;
31728;SDS011;18309;43.658;1.312;2022-12-16T16:35:00;12.07;;;6.82;;
31728;SDS011;18309;43.658;1.312;2022-12-16T16:37:44;14.38;;;6.82;;
31728;SDS011;18309;43.658;1.312;2022-12-16T16:40:47;18.73;;;7.53;;
31728;SDS011;18309;43.658;1.312;2022-12-16T16:43:31;18.00;;;6.95;;
31728;SDS011;18309;43.658;1.312;2022-12-16T16:49:02;9.07;;;5.38;;
31728;SDS011;18309;43.658;1.312;2022-12-16T16:51:47;11.88;;;5.53;;
31728;SDS011;18309;43.658;1.312;2022-12-16T16:54:31;12.65;;;4.90;;
31728;SDS011;18309;43.658;1.312;2022-12-16T16:57:15;11.00;;;4.85;;
31728;SDS011;18309;43.658;1.312;2022-12-16T17:00:00;12.02;;;4.20;;
31728;SDS011;18309;43.658;1.312;2022-12-16T17:02:44;9.35;;;4.18;;
31728;SDS011;18309;43.658;1.312;2022-12-16T17:05:28;5.47;;;3.83;;
31728;SDS011;18309;43.658;1.312;2022-12-16T17:08:12;8.90;;;3.20;;
31728;SDS011;18309;43.658;1.312;2022-12-16T17:10:56;6.80;;;3.97;;
31728;SDS011;18309;43.658;1.312;2022-12-16T17:13:41;11.23;;;4.05;;
31728;SDS011;18309;43.658;1.312;2022-12-16T17:16:25;12.07;;;3.95;;
31728;SDS011;18309;43.658;1.312;2022-12-16T17:19:09;5.70;;;3.22;;
31728;SDS011;18309;43.658;1.312;2022-12-16T17:21:54;4.32;;;2.78;;
31728;SDS011;18309;43.658;1.312;2022-12-16T17:24:38;5.53;;;2.78;;
31728;SDS011;18309;43.658;1.312;2022-12-16T17:27:23;8.77;;;3.20;;
31728;SDS011;18309;43.658;1.312;2022-12-16T17:32:57;7.88;;;3.20;;
31728;SDS011;18309;43.658;1.312;2022-12-16T17:35:42;5.95;;;2.95;;
31728;SDS011;18309;43.658;1.312;2022-12-16T17:38:26;8.57;;;2.97;;
31728;SDS011;18309;43.658;1.312;2022-12-16T17:41:10;9.20;;;3.40;;
31728;SDS011;18309;43.658;1.312;2022-12-16T17:43:54;6.30;;;3.33;;
31728;SDS011;18309;43.658;1.312;2022-12-16T17:46:39;8.35;;;4.00;;
31728;SDS011;18309;43.658;1.312;2022-12-16T17:49:23;7.57;;;4.32;;
31728;SDS011;18309;43.658;1.312;2022-12-16T17:52:07;13.80;;;5.43;;
31728;SDS011;18309;43.658;1.312;2022-12-16T17:54:51;11.75;;;5.10;;
31728;SDS011;18309;43.658;1.312;2022-12-16T17:57:35;9.13;;;4.43;;
31728;SDS011;18309;43.658;1.312;2022-12-16T18:00:20;8.05;;;4.88;;
31728;SDS011;18309;43.658;1.312;2022-12-16T18:03:04;6.55;;;4.20;;
31728;SDS011;18309;43.658;1.312;2022-12-16T18:05:54;9.50;;;4.30;;
31728;SDS011;18309;43.658;1.312;2022-12-16T18:08:38;6.30;;;3.95;;
31728;SDS011;18309;43.658;1.312;2022-12-16T18:11:23;8.27;;;4.85;;
31728;SDS011;18309;43.658;1.312;2022-12-16T18:14:07;12.52;;;5.45;;
31728;SDS011;18309;43.658;1.312;2022-12-16T18:16:51;7.93;;;4.57;;
31728;SDS011;18309;43.658;1.312;2022-12-16T18:19:35;10.63;;;5.13;;
31728;SDS011;18309;43.658;1.312;2022-12-16T18:22:20;8.35;;;4.75;;
31728;SDS011;18309;43.658;1.312;2022-12-16T18:25:04;9.50;;;5.00;;
31728;SDS011;18309;43.658;1.312;2022-12-16T18:27:48;7.68;;;4.78;;
31728;SDS011;18309;43.658;1.312;2022-12-16T18:30:32;8.07;;;5.10;;
31728;SDS011;18309;43.658;1.312;2022-12-16T18:33:18;16.42;;;5.38;;
31728;SDS011;18309;43.658;1.312;2022-12-16T18:36:02;14.00;;;6.03;;
31728;SDS011;18309;43.658;1.312;2022-12-16T18:38:47;11.30;;;6.50;;
31728;SDS011;18309;43.658;1.312;2022-12-16T18:41:31;9.73;;;6.03;;
31728;SDS011;18309;43.658;1.312;2022-12-16T18:44:15;13.68;;;6.68;;
31728;SDS011;18309;43.658;1.312;2022-12-16T18:46:59;11.43;;;7.13;;
31728;SDS011;18309;43.658;1.312;2022-12-16T18:49:43;12.77;;;6.95;;
31728;SDS011;18309;43.658;1.312;2022-12-16T18:52:28;12.75;;;6.90;;
31728;SDS011;18309;43.658;1.312;2022-12-16T18:55:13;13.50;;;7.82;;
31728;SDS011;18309;43.658;1.312;2022-12-16T18:57:57;12.57;;;7.72;;